Time;durP1;ratioP1;P1;durP2;ratioP2;P2;SDS_P1;SDS_P2;PMS_P1;PMS_P2;Temp;Humidity;BMP_temperature;BMP_pressure;BME280_temperature;BME280_humidity;BME280_pressure;Samples;Min_cycle;Max_cycle;Signal;HPM_P1;HPM_P2
2022/05/04 00:01:40;;;;;;;7.70;6.90;;;12.60;99.90;;;;;;5158389;27;20444;-58
2022/05/04 00:04:08;;;;;;;9.40;8.50;;;12.60;99.90;;;;;;5158199;27;20477;-58
2022/05/04 00:06:35;;;;;;;7.77;7.07;;;12.70;99.90;;;;;;5158543;27;20443;-58
2022/05/04 00:09:03;;;;;;;8.20;7.27;;;12.70;99.90;;;;;;5158473;27;20464;-58
2022/05/04 00:11:30;;;;;;;8.30;7.60;;;12.70;99.90;;;;;;5158388;27;20878;-59
2022/05/04 00:13:57;;;;;;;7.57;6.87;;;12.70;99.90;;;;;;5158366;27;20436;-57
2022/05/04 00:16:24;;;;;;;6.90;6.30;;;12.70;99.90;;;;;;5158318;27;20475;-58
2022/05/04 00:18:51;;;;;;;7.20;6.60;;;12.40;99.90;;;;;;5158160;27;20469;-57
2022/05/04 00:21:20;;;;;;;9.73;7.90;;;12.30;99.90;;;;;;5157919;27;20994;-59
2022/05/04 00:23:47;;;;;;;8.97;8.07;;;12.30;99.90;;;;;;5158041;27;20481;-59
2022/05/04 00:26:14;;;;;;;8.67;7.60;;;12.30;99.90;;;;;;5158089;27;20805;-59
2022/05/04 00:28:41;;;;;;;8.17;7.47;;;12.40;99.90;;;;;;5157797;27;20520;-58
2022/05/04 00:31:09;;;;;;;9.40;8.60;;;12.30;99.90;;;;;;5157629;27;20441;-58
2022/05/04 00:33:36;;;;;;;8.40;7.60;;;12.30;99.90;;;;;;5157881;27;20441;-57
2022/05/04 00:36:03;;;;;;;8.63;7.83;;;12.40;99.90;;;;;;5157984;27;20444;-58
2022/05/04 00:38:32;;;;;;;8.27;7.57;;;12.40;99.90;;;;;;5157705;27;20557;-58
2022/05/04 00:40:59;;;;;;;9.93;7.97;;;12.30;99.90;;;;;;5157792;27;20445;-58
2022/05/04 00:43:27;;;;;;;9.03;7.63;;;12.40;99.90;;;;;;5157712;27;20473;-58
2022/05/04 00:45:54;;;;;;;8.27;7.47;;;12.20;99.90;;;;;;5157419;27;20436;-58
2022/05/04 00:48:21;;;;;;;8.80;8.00;;;12.20;99.90;;;;;;5157257;27;20464;-58
2022/05/04 00:50:49;;;;;;;9.43;8.53;;;12.30;99.90;;;;;;5157658;27;20487;-58
2022/05/04 00:53:18;;;;;;;9.50;8.63;;;12.40;99.90;;;;;;5157586;27;20523;-58
2022/05/04 00:55:48;;;;;;;8.37;7.60;;;12.40;99.90;;;;;;5157159;27;20484;-58
2022/05/04 01:01:03;;;;;;;9.90;8.90;;;12.30;99.90;;;;;;5157125;27;20409;-58
2022/05/04 01:03:30;;;;;;;8.80;8.00;;;12.30;99.90;;;;;;5157401;27;20491;-58
2022/05/04 01:05:57;;;;;;;9.07;8.03;;;12.30;99.90;;;;;;5157313;27;20455;-58
2022/05/04 01:08:24;;;;;;;9.10;8.30;;;12.20;99.90;;;;;;5157159;27;20472;-58
2022/05/04 01:10:53;;;;;;;9.27;8.30;;;12.00;99.90;;;;;;5157286;27;20440;-58
2022/05/04 01:13:21;;;;;;;8.47;7.77;;;12.00;99.90;;;;;;5157096;27;20443;-58
2022/05/04 01:15:48;;;;;;;10.80;8.33;;;12.10;99.90;;;;;;5157066;27;20490;-58
2022/05/04 01:18:16;;;;;;;12.43;8.37;;;12.10;99.90;;;;;;5157055;27;20473;-58
2022/05/04 01:20:43;;;;;;;8.80;8.00;;;12.20;99.90;;;;;;5157015;27;20927;-57
2022/05/04 01:23:12;;;;;;;9.70;8.80;;;12.20;99.90;;;;;;5156899;27;20499;-58
2022/05/04 01:25:39;;;;;;;13.73;8.60;;;12.20;99.90;;;;;;5157007;27;20528;-58
2022/05/04 01:28:07;;;;;;;10.30;9.40;;;12.20;99.90;;;;;;5156439;27;20480;-58
2022/05/04 01:30:34;;;;;;;9.07;8.27;;;12.20;99.90;;;;;;5156759;27;20441;-58
2022/05/04 01:33:02;;;;;;;8.90;8.00;;;12.20;99.90;;;;;;5156314;27;20516;-58
2022/05/04 01:35:29;;;;;;;8.53;7.70;;;12.30;99.90;;;;;;5156694;27;20803;-58
2022/05/04 01:37:56;;;;;;;9.77;7.70;;;12.30;99.90;;;;;;5156441;27;21057;-58
2022/05/04 01:40:25;;;;;;;9.30;8.60;;;12.10;99.90;;;;;;5156712;27;20503;-58
2022/05/04 01:42:52;;;;;;;8.77;7.97;;;12.00;99.90;;;;;;5156315;27;20479;-58
2022/05/04 01:45:19;;;;;;;9.70;8.80;;;12.00;99.90;;;;;;5156487;27;20447;-57
2022/05/04 01:47:50;;;;;;;8.77;7.97;;;12.10;99.90;;;;;;5156380;27;20495;-58
2022/05/04 01:50:18;;;;;;;9.67;8.87;;;12.20;99.90;;;;;;5156490;27;20539;-58
2022/05/04 01:52:45;;;;;;;9.73;8.93;;;12.20;99.90;;;;;;5156411;27;20433;-58
2022/05/04 01:55:14;;;;;;;8.90;8.10;;;12.20;99.90;;;;;;5156348;27;20444;-58
2022/05/04 01:57:42;;;;;;;9.60;8.30;;;12.10;99.90;;;;;;5156263;27;20436;-58
2022/05/04 02:00:11;;;;;;;9.23;8.13;;;12.10;99.90;;;;;;5155977;27;20429;-57
2022/05/04 02:02:38;;;;;;;8.97;8.17;;;12.10;99.90;;;;;;5155759;27;20527;-58
2022/05/04 02:05:06;;;;;;;9.50;8.47;;;12.10;99.90;;;;;;5156237;27;20617;-58
2022/05/04 02:07:36;;;;;;;9.93;9.03;;;12.10;99.90;;;;;;5155713;27;20444;-58
2022/05/04 02:10:03;;;;;;;9.50;8.63;;;12.20;99.90;;;;;;5155723;27;20436;-57
2022/05/04 02:12:31;;;;;;;10.13;9.23;;;12.10;99.90;;;;;;5156023;27;20451;-58
2022/05/04 02:15:00;;;;;;;8.80;8.10;;;11.90;99.90;;;;;;5156033;27;20443;-58
2022/05/04 02:17:27;;;;;;;9.70;8.87;;;12.00;99.90;;;;;;5155851;27;20910;-58
2022/05/04 02:19:54;;;;;;;27.57;9.63;;;12.00;99.90;;;;;;5155534;27;20455;-58
2022/05/04 02:22:21;;;;;;;8.70;7.90;;;12.00;99.90;;;;;;5155592;27;20868;-58
2022/05/04 02:24:48;;;;;;;9.73;8.80;;;12.00;99.90;;;;;;5155365;27;20472;-58
2022/05/04 02:27:15;;;;;;;9.40;8.60;;;12.10;99.90;;;;;;5155172;27;20540;-57
2022/05/04 02:29:42;;;;;;;9.83;9.00;;;12.20;99.90;;;;;;5155419;27;20471;-58
2022/05/04 02:32:11;;;;;;;10.33;8.87;;;12.20;99.90;;;;;;5155351;27;20445;-58
2022/05/04 02:37:54;;;;;;;8.67;7.87;;;12.20;99.90;;;;;;5155281;27;20449;-58
2022/05/04 02:40:12;;;;;;;9.97;8.97;;;12.20;99.90;;;;;;5155358;27;20496;-58
2022/05/04 02:42:39;;;;;;;10.23;8.93;;;12.20;99.90;;;;;;5155603;27;20450;-58
2022/05/04 02:45:08;;;;;;;9.37;8.47;;;12.20;99.90;;;;;;5154349;27;20488;-58
2022/05/04 02:47:38;;;;;;;8.70;7.90;;;12.30;99.90;;;;;;5155019;27;20495;-58
2022/05/04 02:50:06;;;;;;;8.70;7.90;;;12.10;99.90;;;;;;5155460;27;20425;-58
2022/05/04 02:52:33;;;;;;;12.40;9.10;;;12.20;99.90;;;;;;5155162;27;20445;-58
2022/05/04 02:55:00;;;;;;;9.77;8.90;;;12.20;99.90;;;;;;5155312;27;20441;-58
2022/05/04 02:57:27;;;;;;;10.60;9.60;;;12.20;99.90;;;;;;5154974;27;20782;-58
2022/05/04 02:59:54;;;;;;;9.80;8.90;;;12.30;99.90;;;;;;5155028;27;21002;-58
2022/05/04 03:02:30;;;;;;;9.53;8.63;;;12.40;99.90;;;;;;5155201;27;20789;-58
2022/05/04 03:05:01;;;;;;;10.13;9.13;;;12.40;99.90;;;;;;5155137;27;20514;-58
2022/05/04 03:07:28;;;;;;;11.23;8.90;;;12.50;99.90;;;;;;5155231;27;20470;-58
2022/05/04 03:09:56;;;;;;;9.30;8.40;;;12.50;99.90;;;;;;5154942;27;20451;-58
2022/05/04 03:12:23;;;;;;;14.60;9.00;;;12.50;99.90;;;;;;5155142;27;20449;-58
2022/05/04 03:14:51;;;;;;;10.23;8.90;;;12.50;99.90;;;;;;5154869;27;20950;-58
2022/05/04 03:17:19;;;;;;;8.27;7.57;;;12.40;99.90;;;;;;5155169;27;20446;-58
2022/05/04 03:19:47;;;;;;;9.93;9.03;;;12.40;99.90;;;;;;5155019;27;20465;-58
2022/05/04 03:22:16;;;;;;;8.53;7.83;;;12.20;99.90;;;;;;5155096;27;20530;-58
2022/05/04 03:24:43;;;;;;;11.10;8.10;;;12.20;99.90;;;;;;5155102;27;20473;-58
2022/05/04 03:27:10;;;;;;;9.67;8.83;;;12.20;99.90;;;;;;5154666;27;20424;-58
2022/05/04 03:29:37;;;;;;;10.70;9.30;;;12.20;99.90;;;;;;5154512;27;20559;-58
2022/05/04 03:32:05;;;;;;;10.70;8.90;;;12.20;99.90;;;;;;5155064;27;20451;-58
2022/05/04 03:34:32;;;;;;;9.60;8.60;;;12.20;99.90;;;;;;5154763;27;20442;-58
2022/05/04 03:36:59;;;;;;;9.87;8.87;;;12.20;99.90;;;;;;5154812;27;20505;-58
2022/05/04 03:39:29;;;;;;;11.93;8.53;;;12.10;99.90;;;;;;5154646;27;20979;-58
2022/05/04 03:41:56;;;;;;;9.00;8.13;;;12.20;99.90;;;;;;5154534;27;20452;-58
2022/05/04 03:44:23;;;;;;;8.27;7.40;;;12.30;99.90;;;;;;5154456;27;20833;-59
2022/05/04 03:46:52;;;;;;;9.53;8.40;;;12.30;99.90;;;;;;5154618;27;20437;-58
2022/05/04 03:49:22;;;;;;;9.40;8.50;;;12.30;99.90;;;;;;5154737;27;20469;-58
2022/05/04 03:51:49;;;;;;;10.77;8.90;;;12.40;99.90;;;;;;5154805;27;20463;-58
2022/05/04 03:54:17;;;;;;;8.83;7.93;;;12.40;99.90;;;;;;5154769;27;20437;-57
2022/05/04 03:56:45;;;;;;;9.60;8.70;;;12.40;99.90;;;;;;5157468;27;20441;-58
2022/05/04 03:59:13;;;;;;;9.80;8.73;;;12.50;99.90;;;;;;5158551;27;20460;-58
2022/05/04 04:01:40;;;;;;;9.53;8.60;;;12.50;99.90;;;;;;5158306;27;20433;-58
2022/05/04 04:04:07;;;;;;;9.00;8.20;;;12.50;99.90;;;;;;5158583;27;20476;-58
2022/05/04 04:06:35;;;;;;;10.90;9.90;;;12.50;99.90;;;;;;5158148;27;20484;-58
2022/05/04 04:09:03;;;;;;;10.27;9.33;;;12.50;99.90;;;;;;5158460;27;20483;-59
2022/05/04 04:11:30;;;;;;;9.20;8.37;;;12.50;99.90;;;;;;5158485;27;20437;-60
2022/05/04 04:13:59;;;;;;;12.07;9.30;;;12.60;99.90;;;;;;5158300;27;20468;-58
2022/05/04 04:16:26;;;;;;;9.20;8.40;;;12.70;99.90;;;;;;5158242;27;20524;-58
2022/05/04 04:18:53;;;;;;;10.10;9.13;;;12.50;99.90;;;;;;5157955;27;20974;-58
2022/05/04 04:24:06;;;;;;;11.30;9.10;;;12.60;99.90;;;;;;5157877;27;20464;-58
2022/05/04 04:26:33;;;;;;;10.93;9.07;;;12.70;99.90;;;;;;5158077;27;20455;-58
2022/05/04 04:29:02;;;;;;;11.07;9.13;;;12.60;99.90;;;;;;5157590;27;20480;-58
2022/05/04 04:31:29;;;;;;;9.73;8.83;;;12.60;99.90;;;;;;5157674;27;20441;-58
2022/05/04 04:33:56;;;;;;;10.87;9.80;;;12.70;99.90;;;;;;5157977;27;20520;-58
2022/05/04 04:36:24;;;;;;;11.00;9.90;;;12.70;99.90;;;;;;5157864;27;20497;-58
2022/05/04 04:38:51;;;;;;;9.50;8.70;;;12.70;99.90;;;;;;5157819;27;20893;-58
2022/05/04 04:41:18;;;;;;;10.03;9.03;;;12.80;99.90;;;;;;5157797;27;20543;-58
2022/05/04 04:43:46;;;;;;;11.43;9.60;;;12.80;99.90;;;;;;5157352;27;20476;-58
2022/05/04 04:46:14;;;;;;;12.23;10.60;;;12.80;99.90;;;;;;5157778;27;20444;-58
2022/05/04 04:48:41;;;;;;;9.53;8.63;;;12.90;99.90;;;;;;5157556;27;20475;-59
2022/05/04 04:51:09;;;;;;;9.67;8.60;;;12.90;99.90;;;;;;5157280;27;20447;-58
2022/05/04 04:53:36;;;;;;;11.37;10.27;;;13.00;99.90;;;;;;5157347;27;20990;-58
2022/05/04 04:56:04;;;;;;;10.83;9.73;;;13.00;99.90;;;;;;5157224;27;20453;-58
2022/05/04 04:58:31;;;;;;;11.30;10.30;;;13.00;99.90;;;;;;5157046;27;20485;-58
2022/05/04 05:00:58;;;;;;;12.53;8.90;;;12.90;99.90;;;;;;5157304;27;20461;-58
2022/05/04 05:03:27;;;;;;;11.30;10.30;;;12.90;99.90;;;;;;5157271;27;20445;-58
2022/05/04 05:05:54;;;;;;;11.10;9.90;;;12.90;99.90;;;;;;5157255;27;20535;-58
2022/05/04 05:08:21;;;;;;;9.60;8.70;;;13.00;99.90;;;;;;5156226;27;20488;-58
2022/05/04 05:10:48;;;;;;;11.67;10.53;;;13.10;99.90;;;;;;5157192;27;20448;-58
2022/05/04 05:13:16;;;;;;;9.50;8.50;;;13.00;99.90;;;;;;5156724;27;20638;-59
2022/05/04 05:18:29;;;;;;;10.70;9.70;;;13.00;99.90;;;;;;5156962;27;20440;-59
2022/05/04 05:20:56;;;;;;;11.20;10.20;;;13.00;99.90;;;;;;5157033;27;20516;-59
2022/05/04 05:23:24;;;;;;;13.43;10.50;;;13.00;99.90;;;;;;5157027;27;20846;-59
2022/05/04 05:25:52;;;;;;;13.67;10.47;;;12.90;99.90;;;;;;5156767;27;20503;-59
2022/05/04 05:28:19;;;;;;;11.37;10.17;;;13.00;99.90;;;;;;5156438;27;20503;-59
2022/05/04 05:30:47;;;;;;;11.80;10.67;;;13.00;99.90;;;;;;5156440;27;20444;-60
2022/05/04 05:33:15;;;;;;;11.10;10.10;;;13.20;99.90;;;;;;5156511;27;20508;-59
2022/05/04 05:35:44;;;;;;;11.47;10.27;;;13.20;99.90;;;;;;5156379;27;20536;-59
2022/05/04 05:38:11;;;;;;;12.77;11.40;;;13.20;99.90;;;;;;5156820;27;20545;-60
2022/05/04 05:40:38;;;;;;;11.90;10.83;;;13.30;99.90;;;;;;5156585;27;20535;-57
2022/05/04 05:43:06;;;;;;;13.17;10.57;;;13.40;99.90;;;;;;5156378;27;20444;-57
2022/05/04 05:45:33;;;;;;;11.33;10.20;;;13.50;99.90;;;;;;5155968;27;20571;-57
2022/05/04 05:48:00;;;;;;;11.93;10.70;;;13.50;99.90;;;;;;5155992;27;20552;-58
2022/05/04 05:50:28;;;;;;;11.47;10.47;;;13.50;99.90;;;;;;5156406;27;20953;-57
2022/05/04 05:52:56;;;;;;;11.90;10.70;;;13.70;99.90;;;;;;5156018;27;20973;-58
2022/05/04 05:55:24;;;;;;;11.07;9.80;;;13.80;99.90;;;;;;5155930;27;20531;-57
2022/05/04 05:57:51;;;;;;;12.40;11.10;;;13.80;99.90;;;;;;5156030;27;20449;-58
2022/05/04 06:00:18;;;;;;;11.30;10.10;;;13.80;99.90;;;;;;5155772;27;20540;-58
2022/05/04 06:02:46;;;;;;;12.60;11.30;;;13.80;99.90;;;;;;5155983;27;20445;-58
2022/05/04 06:05:13;;;;;;;12.50;11.23;;;13.90;99.90;;;;;;5155837;27;20480;-58
2022/05/04 06:07:41;;;;;;;11.60;10.40;;;13.90;99.90;;;;;;5155257;27;20548;-57
2022/05/04 06:10:10;;;;;;;12.77;11.50;;;13.90;99.90;;;;;;5155623;27;21007;-58
2022/05/04 06:12:38;;;;;;;13.00;10.77;;;13.90;99.90;;;;;;5155744;27;20447;-58
2022/05/04 06:15:08;;;;;;;12.40;11.20;;;14.10;99.90;;;;;;5155451;27;20476;-58
2022/05/04 06:17:35;;;;;;;12.13;10.93;;;14.20;99.90;;;;;;5155349;27;20445;-59
2022/05/04 06:20:03;;;;;;;12.23;11.03;;;14.20;99.90;;;;;;5155745;27;20540;-59
2022/05/04 06:22:31;;;;;;;14.00;10.60;;;14.20;99.90;;;;;;5155803;27;20449;-59
2022/05/04 06:24:58;;;;;;;12.70;11.40;;;14.20;99.90;;;;;;5155467;27;20477;-59
2022/05/04 06:27:29;;;;;;;12.50;11.00;;;14.30;99.90;;;;;;5155214;27;20445;-58
2022/05/04 06:35:25;;;;;;;12.73;11.53;;;14.40;99.90;;;;;;5155459;27;20465;-58
2022/05/04 06:37:53;;;;;;;13.50;10.73;;;14.30;99.90;;;;;;5155195;27;20494;-58
2022/05/04 06:40:21;;;;;;;15.03;10.70;;;14.30;99.90;;;;;;5155388;27;20444;-58
2022/05/04 06:42:50;;;;;;;12.57;11.30;;;14.20;99.90;;;;;;5155420;27;20444;-58
2022/05/04 06:45:17;;;;;;;14.77;10.50;;;14.30;99.90;;;;;;5155237;27;20488;-57
2022/05/04 06:47:44;;;;;;;15.37;11.90;;;14.30;99.90;;;;;;5154781;27;20444;-58
2022/05/04 06:50:13;;;;;;;13.40;10.73;;;14.40;99.90;;;;;;5155209;27;20785;-58
2022/05/04 06:52:40;;;;;;;12.80;11.40;;;14.50;99.90;;;;;;5155140;27;20453;-58
2022/05/04 06:55:09;;;;;;;12.10;9.17;;;14.60;99.90;;;;;;5155018;27;20440;-57
2022/05/04 06:57:36;;;;;;;7.93;6.97;;;14.60;99.90;;;;;;5154897;27;20483;-59
2022/05/04 07:00:06;;;;;;;7.17;6.47;;;14.60;99.90;;;;;;5154675;27;20455;-59
2022/05/04 07:02:34;;;;;;;8.93;7.40;;;14.50;99.90;;;;;;5154660;27;20543;-58
2022/05/04 07:05:01;;;;;;;7.50;6.77;;;14.60;99.90;;;;;;5154647;27;20480;-58
2022/05/04 07:07:29;;;;;;;9.20;6.73;;;14.70;99.90;;;;;;5154986;27;20453;-58
2022/05/04 07:09:56;;;;;;;10.40;7.43;;;14.80;99.90;;;;;;5154730;27;20827;-58
2022/05/04 07:12:23;;;;;;;8.57;7.77;;;14.90;99.90;;;;;;5155279;27;20448;-58
2022/05/04 07:14:51;;;;;;;7.90;7.10;;;15.00;99.90;;;;;;5154636;27;20443;-58
2022/05/04 07:17:20;;;;;;;8.60;7.70;;;15.10;99.90;;;;;;5154456;27;20520;-58
2022/05/04 07:19:48;;;;;;;7.43;6.73;;;15.20;99.90;;;;;;5154249;27;20962;-59
2022/05/04 07:22:15;;;;;;;7.93;6.20;;;15.40;99.90;;;;;;5154454;27;20963;-58
2022/05/04 07:24:42;;;;;;;8.93;6.93;;;15.30;99.90;;;;;;5154717;27;20559;-58
2022/05/04 07:27:10;;;;;;;6.77;5.60;;;15.40;99.90;;;;;;5154130;27;20994;-58
2022/05/04 07:29:37;;;;;;;6.17;5.23;;;15.40;99.90;;;;;;5154286;27;20533;-59
2022/05/04 07:32:05;;;;;;;5.90;5.40;;;15.30;99.90;;;;;;5157962;27;20441;-58
2022/05/04 07:34:34;;;;;;;7.50;5.30;;;15.20;99.90;;;;;;5158510;27;20421;-59
2022/05/04 07:37:01;;;;;;;6.43;5.70;;;15.30;99.90;;;;;;5158260;27;21009;-58
2022/05/04 07:42:22;;;;;;;8.13;5.30;;;15.40;99.90;;;;;;5158481;27;20401;-59
2022/05/04 07:44:50;;;;;;;5.13;4.73;;;15.50;99.90;;;;;;5158549;27;20464;-59
2022/05/04 07:47:17;;;;;;;5.43;4.93;;;15.40;99.90;;;;;;5158092;27;20450;-58
2022/05/04 07:49:46;;;;;;;7.13;5.13;;;15.40;99.90;;;;;;5158530;27;20468;-59
2022/05/04 07:52:13;;;;;;;5.17;4.77;;;15.20;99.90;;;;;;5158056;27;20450;-58
2022/05/04 07:54:40;;;;;;;5.60;4.50;;;15.20;99.90;;;;;;5158404;27;20492;-58
2022/05/04 07:57:08;;;;;;;4.97;4.57;;;15.30;99.90;;;;;;5158563;27;20472;-58
2022/05/04 07:59:35;;;;;;;4.63;4.20;;;15.30;99.90;;;;;;5158249;27;20496;-58
2022/05/04 08:04:49;;;;;;;5.70;5.13;;;15.50;99.90;;;;;;5158111;27;20463;-58
2022/05/04 08:07:17;;;;;;;7.43;5.07;;;15.70;99.90;;;;;;5157770;27;20425;-58
2022/05/04 08:09:44;;;;;;;5.10;4.30;;;16.10;99.90;;;;;;5158071;27;20476;-59
2022/05/04 08:12:13;;;;;;;5.30;4.90;;;16.20;99.90;;;;;;5157727;27;20437;-59
2022/05/04 08:14:40;;;;;;;5.00;4.60;;;16.40;99.90;;;;;;5158062;27;20497;-59
2022/05/04 08:17:08;;;;;;;5.67;4.93;;;16.30;99.90;;;;;;5157810;27;20979;-58
2022/05/04 08:19:35;;;;;;;4.93;4.43;;;16.20;99.90;;;;;;5158003;27;20546;-58
2022/05/04 08:22:04;;;;;;;5.30;4.77;;;16.40;99.90;;;;;;5157940;27;20552;-58
2022/05/04 08:24:36;;;;;;;5.10;4.50;;;16.20;99.90;;;;;;5157931;27;20514;-58
2022/05/04 08:27:03;;;;;;;5.43;3.93;;;16.10;99.90;;;;;;5157855;27;20450;-58
2022/05/04 08:29:31;;;;;;;4.50;4.10;;;16.10;99.90;;;;;;5157271;27;20845;-58
2022/05/04 08:31:59;;;;;;;5.03;4.60;;;16.20;99.90;;;;;;5157488;27;20531;-58
2022/05/04 08:34:26;;;;;;;4.90;4.50;;;16.10;99.90;;;;;;5158152;27;20441;-58
2022/05/04 08:36:53;;;;;;;5.00;4.50;;;15.90;99.90;;;;;;5157591;27;20469;-58
2022/05/04 08:39:22;;;;;;;6.47;4.50;;;15.90;99.90;;;;;;5157719;27;20508;-59
2022/05/04 08:41:49;;;;;;;6.10;5.10;;;15.80;99.90;;;;;;5155985;27;20518;-58
2022/05/04 08:44:16;;;;;;;4.77;4.40;;;15.80;99.90;;;;;;5157144;27;20456;-58
2022/05/04 08:46:45;;;;;;;5.90;4.23;;;15.70;99.90;;;;;;5157375;27;20841;-58
2022/05/04 08:49:13;;;;;;;6.57;6.07;;;15.70;99.90;;;;;;5157430;27;20496;-58
2022/05/04 08:51:42;;;;;;;5.00;4.20;;;15.60;99.90;;;;;;5157037;27;20460;-58
2022/05/04 08:54:10;;;;;;;7.53;4.40;;;15.60;99.90;;;;;;5157302;27;20441;-58
2022/05/04 08:56:39;;;;;;;4.40;4.00;;;15.60;99.90;;;;;;5157064;27;20444;-58
2022/05/04 08:59:07;;;;;;;4.20;3.90;;;15.50;99.90;;;;;;5156924;27;20996;-58
2022/05/04 09:01:35;;;;;;;6.47;5.60;;;15.50;99.90;;;;;;5156874;27;20436;-58
2022/05/04 09:04:02;;;;;;;4.93;4.53;;;15.50;99.90;;;;;;5157115;27;20536;-59
2022/05/04 09:06:31;;;;;;;5.33;4.83;;;15.40;99.90;;;;;;5156984;27;20473;-58
2022/05/04 09:09:03;;;;;;;7.70;5.87;;;15.50;99.90;;;;;;5157152;27;20559;-59
2022/05/04 09:11:32;;;;;;;6.90;5.93;;;15.50;99.90;;;;;;5156850;27;20474;-59
2022/05/04 09:14:07;;;;;;;6.83;6.13;;;15.60;99.90;;;;;;5157096;27;20563;-58
2022/05/04 09:16:35;;;;;;;7.30;6.40;;;15.70;99.90;;;;;;5156624;27;20777;-58
2022/05/04 09:19:02;;;;;;;8.10;7.10;;;15.70;99.90;;;;;;5156421;27;20455;-58
2022/05/04 09:21:32;;;;;;;7.73;6.93;;;15.60;99.90;;;;;;5156733;27;20523;-58
2022/05/04 09:24:00;;;;;;;8.40;6.70;;;15.60;99.90;;;;;;5156218;27;20445;-57
2022/05/04 09:26:27;;;;;;;6.97;6.30;;;15.70;99.90;;;;;;5156053;27;20996;-58
2022/05/04 09:29:00;;;;;;;8.07;7.07;;;15.60;99.90;;;;;;5156114;27;20559;-58
2022/05/04 09:31:30;;;;;;;8.40;7.60;;;15.60;99.90;;;;;;5156197;27;20557;-57
2022/05/04 09:33:59;;;;;;;10.10;9.03;;;15.70;99.90;;;;;;5156403;27;20451;-58
2022/05/04 09:36:33;;;;;;;10.23;9.33;;;15.80;99.90;;;;;;5156226;27;20437;-57
2022/05/04 09:47:21;;;;;;;10.47;8.50;;;15.80;99.90;;;;;;5156223;27;20768;-57
2022/05/04 09:49:49;;;;;;;11.57;9.97;;;16.30;99.90;;;;;;5156172;27;20590;-57
2022/05/04 09:52:21;;;;;;;11.70;10.60;;;16.60;99.90;;;;;;5155701;27;20440;-58
2022/05/04 09:54:52;;;;;;;17.17;11.20;;;17.20;99.90;;;;;;5155303;27;20437;-58
2022/05/04 09:57:20;;;;;;;11.27;10.27;;;17.60;99.90;;;;;;5155812;27;20425;-58
2022/05/04 09:59:50;;;;;;;18.10;11.60;;;17.70;99.90;;;;;;5156003;27;20510;-58
2022/05/04 10:02:20;;;;;;;10.83;9.93;;;18.80;99.90;;;;;;5155804;27;20754;-57
2022/05/04 10:04:48;;;;;;;11.43;10.33;;;19.60;99.90;;;;;;5155845;27;20437;-58
2022/05/04 10:07:16;;;;;;;11.13;10.07;;;20.60;99.90;;;;;;5155509;27;20516;-58
2022/05/04 10:09:44;;;;;;;10.30;9.47;;;21.10;99.90;;;;;;5155497;27;20496;-58
2022/05/04 10:12:12;;;;;;;11.20;10.10;;;21.20;99.90;;;;;;5155520;27;20470;-58
2022/05/04 10:14:43;;;;;;;11.90;9.37;;;20.10;99.90;;;;;;5155529;27;20469;-58
2022/05/04 10:17:14;;;;;;;11.17;9.97;;;19.30;99.90;;;;;;5155537;27;20421;-58
2022/05/04 10:19:51;;;;;;;10.43;9.53;;;19.10;99.90;;;;;;5155574;27;20612;-58
2022/05/04 10:22:22;;;;;;;9.97;9.07;;;18.90;99.90;;;;;;5155215;27;20919;-58
2022/05/04 10:24:51;;;;;;;10.63;9.63;;;19.00;99.90;;;;;;5155500;27;20474;-57
2022/05/04 10:27:21;;;;;;;11.50;9.40;;;19.70;99.90;;;;;;5154241;27;20491;-57
2022/05/04 10:32:46;;;;;;;10.83;9.43;;;21.00;99.90;;;;;;5155486;27;20742;-58
2022/05/04 10:35:28;;;;;;;10.50;9.50;;;21.70;99.90;;;;;;5155104;27;20485;-58
2022/05/04 10:38:17;;;;;;;9.67;8.90;;;22.50;99.90;;;;;;5155175;27;20472;-58
2022/05/04 10:40:50;;;;;;;10.43;9.53;;;22.70;99.90;;;;;;5155367;27;20457;-58
2022/05/04 10:43:33;;;;;;;9.27;8.47;;;22.50;99.90;;;;;;5155219;27;20451;-59
2022/05/04 10:46:06;;;;;;;9.00;8.30;;;22.50;99.90;;;;;;5155104;27;20475;-59
2022/05/04 10:48:33;;;;;;;7.90;7.20;;;22.80;99.90;;;;;;5155056;27;21041;-59
2022/05/04 10:51:10;;;;;;;8.97;8.27;;;23.10;99.90;;;;;;5155148;27;20514;-59
2022/05/04 10:53:43;;;;;;;8.63;7.73;;;23.90;99.90;;;;;;5154798;27;20481;-59
2022/05/04 10:56:16;;;;;;;6.47;5.97;;;24.10;99.90;;;;;;5155049;27;20421;-59
2022/05/04 10:58:46;;;;;;;5.93;5.40;;;25.00;99.90;;;;;;5155104;27;20469;-58
2022/05/04 11:01:16;;;;;;;8.83;7.47;;;25.20;99.90;;;;;;5155272;27;20445;-58
2022/05/04 11:03:55;;;;;;;9.20;6.63;;;25.60;99.90;;;;;;5154635;27;20483;-59
2022/05/04 11:06:28;;;;;;;11.50;6.27;;;25.30;96.50;;;;;;5153887;27;20502;-59
2022/05/04 11:09:00;;;;;;;6.07;5.33;;;24.60;99.90;;;;;;5154987;27;20984;-59
2022/05/04 11:11:28;;;;;;;7.47;6.87;;;24.80;98.70;;;;;;5154764;27;20425;-59
2022/05/04 11:13:56;;;;;;;7.03;6.40;;;24.70;98.30;;;;;;5154558;27;20445;-59
2022/05/04 11:16:28;;;;;;;7.60;6.87;;;24.50;97.00;;;;;;5154548;27;20532;-58
2022/05/04 11:18:56;;;;;;;6.23;5.67;;;24.20;99.20;;;;;;5154576;27;20962;-58
2022/05/04 11:21:23;;;;;;;9.27;4.80;;;23.70;97.90;;;;;;5154440;27;20543;-58
2022/05/04 11:23:53;;;;;;;8.40;6.13;;;23.10;95.60;;;;;;5154890;27;20448;-58
2022/05/04 11:26:22;;;;;;;3.70;3.40;;;22.10;96.60;;;;;;5154441;27;20468;-59
2022/05/04 11:28:50;;;;;;;5.90;5.23;;;22.20;95.20;;;;;;5154366;27;20881;-59
2022/05/04 11:31:18;;;;;;;4.40;3.63;;;21.50;95.20;;;;;;5154311;27;20452;-59
2022/05/04 11:33:47;;;;;;;3.40;3.10;;;21.50;96.00;;;;;;5154487;27;20425;-58
2022/05/04 11:36:18;;;;;;;4.50;4.10;;;21.60;95.50;;;;;;5154374;27;20524;-58
2022/05/04 11:38:46;;;;;;;5.13;4.63;;;21.60;95.90;;;;;;5155247;27;20476;-58
2022/05/04 11:41:16;;;;;;;4.80;4.40;;;21.90;96.10;;;;;;5154392;27;20905;-58
2022/05/04 11:43:44;;;;;;;5.70;5.13;;;22.40;95.50;;;;;;5154485;27;20445;-59
2022/05/04 11:46:14;;;;;;;6.70;5.20;;;22.40;96.10;;;;;;5154683;27;20483;-60
2022/05/04 11:48:43;;;;;;;5.37;4.63;;;22.90;95.60;;;;;;5154660;27;20867;-60
2022/05/04 11:51:11;;;;;;;4.73;4.33;;;23.00;94.40;;;;;;5154141;27;20493;-59
2022/05/04 11:53:39;;;;;;;5.80;4.17;;;22.60;94.30;;;;;;5154646;27;20448;-60
2022/05/04 11:56:08;;;;;;;5.40;4.90;;;22.90;93.80;;;;;;5154801;27;20467;-59
2022/05/04 11:58:38;;;;;;;6.37;5.10;;;23.20;92.90;;;;;;5154621;27;20556;-59
2022/05/04 12:01:07;;;;;;;6.20;5.60;;;23.10;94.30;;;;;;5154316;27;20445;-59
2022/05/04 12:03:38;;;;;;;5.87;5.37;;;22.90;96.00;;;;;;5154371;27;20487;-59
2022/05/04 12:06:09;;;;;;;7.00;5.00;;;22.90;94.90;;;;;;5154297;27;20471;-59
2022/05/04 12:08:37;;;;;;;6.13;5.33;;;23.50;94.30;;;;;;5154030;27;20937;-59
2022/05/04 12:11:07;;;;;;;6.83;5.27;;;23.80;95.40;;;;;;5154512;27;20445;-60
2022/05/04 12:13:39;;;;;;;5.37;4.90;;;23.60;92.70;;;;;;5154141;27;20935;-60
2022/05/04 12:16:07;;;;;;;8.73;5.40;;;23.50;95.40;;;;;;5154294;27;20449;-59
2022/05/04 12:18:36;;;;;;;6.20;4.97;;;22.60;93.30;;;;;;5157731;27;20468;-59
2022/05/04 12:21:07;;;;;;;4.80;4.40;;;22.50;93.30;;;;;;5158178;27;20436;-60
2022/05/04 12:23:39;;;;;;;4.67;4.27;;;22.60;93.10;;;;;;5158006;27;20448;-61
2022/05/04 12:26:07;;;;;;;4.50;4.20;;;23.00;95.10;;;;;;5157605;27;20464;-59
2022/05/04 12:28:36;;;;;;;4.33;4.03;;;22.30;91.70;;;;;;5157484;27;20476;-59
2022/05/04 12:33:50;;;;;;;6.43;4.93;;;21.90;92.40;;;;;;5157946;27;20412;-60
2022/05/04 12:36:20;;;;;;;5.20;4.80;;;21.20;92.00;;;;;;5157498;27;20803;-59
2022/05/04 12:38:50;;;;;;;5.57;4.70;;;21.20;95.10;;;;;;5157209;27;20479;-60
2022/05/04 12:41:18;;;;;;;4.93;4.53;;;21.00;93.90;;;;;;5157667;27;20785;-59
2022/05/04 12:43:47;;;;;;;6.57;4.63;;;21.10;94.80;;;;;;5157307;27;20440;-59
2022/05/04 12:46:17;;;;;;;4.63;4.23;;;21.20;93.90;;;;;;5157737;27;20551;-59
2022/05/04 12:48:46;;;;;;;4.80;4.17;;;20.90;93.60;;;;;;5157492;27;20467;-60
2022/05/04 12:51:16;;;;;;;4.67;4.20;;;20.80;92.90;;;;;;5157310;27;20985;-58
2022/05/04 12:53:47;;;;;;;5.00;4.20;;;20.90;93.00;;;;;;5157377;27;20445;-59
2022/05/04 12:59:01;;;;;;;4.90;4.50;;;21.10;93.90;;;;;;5157251;27;20444;-58
2022/05/04 13:01:31;;;;;;;4.70;4.30;;;21.10;92.80;;;;;;5156955;27;20488;-59
2022/05/04 13:03:58;;;;;;;6.63;4.50;;;21.00;92.80;;;;;;5157264;27;20504;-59
2022/05/04 13:06:26;;;;;;;6.23;5.50;;;21.10;93.40;;;;;;5156853;27;20483;-59
2022/05/04 13:08:53;;;;;;;5.10;4.70;;;21.20;94.00;;;;;;5156822;27;21009;-59
2022/05/04 13:11:24;;;;;;;5.70;4.97;;;20.90;93.90;;;;;;5157214;27;20543;-59
2022/05/04 13:13:51;;;;;;;7.43;5.00;;;20.90;93.50;;;;;;5156976;27;20445;-60
2022/05/04 13:16:18;;;;;;;5.00;4.60;;;20.90;93.30;;;;;;5157020;27;20541;-59
2022/05/04 13:18:47;;;;;;;6.43;5.23;;;21.20;94.80;;;;;;5157144;27;20461;-58
2022/05/04 13:21:15;;;;;;;4.57;4.17;;;21.60;94.60;;;;;;5156527;27;20444;-58
2022/05/04 13:23:44;;;;;;;5.20;4.70;;;21.80;95.40;;;;;;5156442;27;20449;-59
2022/05/04 13:26:15;;;;;;;6.07;4.90;;;21.90;94.30;;;;;;5156829;27;20432;-59
2022/05/04 13:28:42;;;;;;;5.30;4.30;;;22.00;93.30;;;;;;5155515;27;20986;-58